createdAt,value
2018-06-22T00:03:19.280Z,7.29
2018-06-22T00:09:14.300Z,7.52
2018-06-22T00:15:09.270Z,7.7
2018-06-22T00:21:04.363Z,8.42
2018-06-22T00:26:59.347Z,7.93
2018-06-22T00:32:54.363Z,8.2
2018-06-22T00:38:49.407Z,8.85
2018-06-22T00:44:44.283Z,9.27
2018-06-22T00:50:39.343Z,9.39
2018-06-22T00:56:34.326Z,9.22
2018-06-22T01:02:29.348Z,9.46
2018-06-22T01:08:24.328Z,9.71
2018-06-22T01:14:19.336Z,9.92
2018-06-22T01:20:14.373Z,11.23
2018-06-22T01:26:09.329Z,12.03
2018-06-22T01:32:04.382Z,11.31
2018-06-22T01:37:59.354Z,13.02
2018-06-22T01:43:54.394Z,11.87
2018-06-22T01:49:49.404Z,10.97
2018-06-22T01:55:44.342Z,10.16
2018-06-22T02:01:39.377Z,9.98
2018-06-22T02:07:34.365Z,11.47
2018-06-22T02:13:29.409Z,10.89
2018-06-22T02:19:24.357Z,10.33
2018-06-22T02:25:19.411Z,9.79
2018-06-22T02:31:14.414Z,10.29
2018-06-22T02:37:09.392Z,9.45
2018-06-22T02:43:04.502Z,9.8
2018-06-22T02:48:59.402Z,9.66
2018-06-22T02:54:54.478Z,9.49
2018-06-22T03:00:49.506Z,9.9
2018-06-22T03:06:44.460Z,9.65
2018-06-22T03:12:39.423Z,10.13
2018-06-22T03:18:34.414Z,9.84
2018-06-22T03:24:29.475Z,9.95
2018-06-22T03:30:24.512Z,12.6
2018-06-22T03:36:19.445Z,11.04
2018-06-22T03:42:14.452Z,11.69
2018-06-22T03:48:09.503Z,11.44
2018-06-22T03:54:04.463Z,11.65
2018-06-22T03:59:59.545Z,11.57
2018-06-22T04:05:54.482Z,11.87
2018-06-22T04:11:49.484Z,12
2018-06-22T04:17:44.480Z,12.6
2018-06-22T04:23:39.494Z,11.35
2018-06-22T04:29:34.518Z,11.27
2018-06-22T04:35:29.514Z,11.32
2018-06-22T04:41:24.503Z,11.2
2018-06-22T04:47:19.467Z,11.93
2018-06-22T04:53:14.512Z,13.41
2018-06-22T04:59:09.545Z,11.87
2018-06-22T05:05:04.525Z,11.38
2018-06-22T05:10:59.515Z,16.58
2018-06-22T05:16:54.588Z,12.49
2018-06-22T05:22:49.525Z,11.08
2018-06-22T05:28:44.546Z,10.37
2018-06-22T05:34:39.622Z,11.28
2018-06-22T05:40:34.545Z,10.52
2018-06-22T05:46:29.539Z,9.55
2018-06-22T05:52:24.555Z,10.32
2018-06-22T05:58:19.554Z,9.79
2018-06-22T06:04:14.633Z,10.98
2018-06-22T06:10:09.579Z,11.77
2018-06-22T06:16:04.603Z,12.91
2018-06-22T06:21:59.584Z,12.98
2018-06-22T06:27:54.597Z,10.84
2018-06-22T06:33:49.650Z,11.25
2018-06-22T06:39:44.631Z,11.97
2018-06-22T06:45:39.594Z,13.48
2018-06-22T06:51:34.601Z,14.06
2018-06-22T06:57:29.627Z,11.14
2018-06-22T07:03:24.614Z,11.91
2018-06-22T07:09:19.599Z,13.54
2018-06-22T07:15:14.610Z,13.12
2018-06-22T07:21:09.626Z,13.14
2018-06-22T07:27:04.634Z,12.72
2018-06-22T07:32:59.615Z,13.87
2018-06-22T07:38:54.666Z,13.72
2018-06-22T07:44:49.632Z,14.26
2018-06-22T07:50:44.684Z,14.25
2018-06-22T07:56:39.611Z,14.15
2018-06-22T08:02:34.633Z,14.8
2018-06-22T08:08:29.645Z,14.78
2018-06-22T08:14:24.711Z,14.36
2018-06-22T08:20:19.671Z,13.87
2018-06-22T08:26:14.636Z,13.68
2018-06-22T08:32:09.666Z,13.77
2018-06-22T08:38:04.726Z,13.96
2018-06-22T08:43:59.686Z,14.87
2018-06-22T08:49:54.661Z,14.28
2018-06-22T08:55:49.698Z,12.84
2018-06-22T09:01:44.677Z,13.9
2018-06-22T09:07:39.717Z,11.02
2018-06-22T09:13:34.741Z,11.3
2018-06-22T09:19:29.741Z,11.91
2018-06-22T09:25:24.771Z,10.64
2018-06-22T09:31:19.793Z,11.14
2018-06-22T09:37:14.718Z,10.36
2018-06-22T09:43:09.743Z,10.63
2018-06-22T09:49:04.737Z,10.02
2018-06-22T09:54:59.759Z,10.57
2018-06-22T10:00:54.757Z,9.9
2018-06-22T10:06:49.751Z,10.2
2018-06-22T10:12:44.902Z,12.9
2018-06-22T10:18:39.752Z,11.44
2018-06-22T10:24:34.776Z,11.69
2018-06-22T10:30:29.749Z,13.31
2018-06-22T10:36:24.826Z,13.84
2018-06-22T10:42:19.807Z,14.62
2018-06-22T10:48:14.809Z,12.41
2018-06-22T10:54:09.835Z,11.39
2018-06-22T11:00:04.862Z,12.6
2018-06-22T11:05:59.800Z,14.85
2018-06-22T11:11:54.820Z,20.32
2018-06-22T11:17:49.872Z,20.62
2018-06-22T11:23:44.820Z,19.99
2018-06-22T11:29:39.820Z,20.45
2018-06-22T11:35:34.881Z,20.82
2018-06-22T11:41:29.867Z,21.35
2018-06-22T11:47:24.903Z,20.14
2018-06-22T11:53:19.892Z,21.43
2018-06-22T11:59:14.936Z,20.43
2018-06-22T12:05:09.819Z,20.41
2018-06-22T12:11:04.877Z,21.89
2018-06-22T12:16:59.911Z,20.97
2018-06-22T12:22:54.869Z,22.28
2018-06-22T12:28:49.870Z,23.08
2018-06-22T12:34:44.894Z,19.47
2018-06-22T12:40:39.849Z,18.59
2018-06-22T12:46:34.901Z,18.47
2018-06-22T12:52:29.897Z,16.8
2018-06-22T12:58:24.889Z,15.94
2018-06-22T13:04:19.927Z,12.21
2018-06-22T13:10:14.886Z,13.36
2018-06-22T13:16:09.868Z,13.45
2018-06-22T13:22:04.987Z,13.47
2018-06-22T13:27:59.986Z,13.91
2018-06-22T13:33:54.948Z,13.73
2018-06-22T13:39:49.954Z,13.24
2018-06-22T13:45:44.905Z,12.67
2018-06-22T13:51:39.934Z,12.41
2018-06-22T13:57:34.979Z,13.2
2018-06-22T14:03:29.941Z,12.81
2018-06-22T14:09:25.020Z,14.36
2018-06-22T14:15:20.034Z,12.92
2018-06-22T14:21:14.975Z,14.84
2018-06-22T14:27:10.004Z,13.37
2018-06-22T14:33:05.016Z,12.43
2018-06-22T14:39:00.033Z,11.5
2018-06-22T14:44:54.964Z,10.23
2018-06-22T14:50:49.964Z,10.51
2018-06-22T14:56:45.090Z,9.4
2018-06-22T15:02:39.982Z,9.31
2018-06-22T15:08:34.979Z,8.62
2018-06-22T15:14:30.014Z,8.99
2018-06-22T15:20:25.026Z,8.86
2018-06-22T15:26:20.026Z,8.46
2018-06-22T15:32:14.989Z,9.01
2018-06-22T15:38:10.003Z,9.5
2018-06-22T15:44:05.067Z,9.16
2018-06-22T15:50:00.078Z,9.41
2018-06-22T15:55:55.048Z,9.2
2018-06-22T16:01:50.049Z,8.73
2018-06-22T16:07:45.059Z,8.85
2018-06-22T16:13:40.050Z,8.7
2018-06-22T16:19:35.034Z,8.93
2018-06-22T16:25:30.084Z,9.63
2018-06-22T16:31:25.096Z,9.16
2018-06-22T16:37:20.091Z,9.56
2018-06-22T16:43:15.099Z,9.83
2018-06-22T16:49:10.100Z,9.91
2018-06-22T16:55:05.071Z,10.57
2018-06-22T17:01:00.114Z,10.68
2018-06-22T17:06:55.126Z,10.66
2018-06-22T17:12:50.115Z,10.51
2018-06-22T17:24:40.106Z,8.73
2018-06-22T17:30:35.071Z,7.62
2018-06-22T17:36:30.133Z,7.32
2018-06-22T17:42:25.104Z,7.22
2018-06-22T17:48:20.127Z,7.23
2018-06-22T17:54:15.201Z,7.17
2018-06-22T18:00:10.166Z,7.4
2018-06-22T18:06:05.270Z,7.92
2018-06-22T18:12:00.196Z,8.14
2018-06-22T18:17:55.196Z,7.96
2018-06-22T18:23:50.229Z,8.25
2018-06-22T18:29:45.192Z,8.26
2018-06-22T18:35:40.185Z,8.11
2018-06-22T18:41:35.216Z,7.01
2018-06-22T18:47:30.193Z,7.38
2018-06-22T18:53:25.298Z,8.07
2018-06-22T18:59:20.187Z,7.79
2018-06-22T19:05:15.220Z,7.54
2018-06-22T19:11:10.231Z,7.45
2018-06-22T19:17:05.251Z,6.71
2018-06-22T19:23:00.271Z,6.41
2018-06-22T19:28:55.252Z,7.71
2018-06-22T19:34:50.227Z,8.12
2018-06-22T19:40:45.310Z,7.86
2018-06-22T19:46:40.219Z,8.17
2018-06-22T19:52:35.290Z,8.15
2018-06-22T19:58:30.308Z,8.36
2018-06-22T20:04:25.257Z,7.92
2018-06-22T20:10:20.283Z,8.38
2018-06-22T20:16:15.384Z,7.7
2018-06-22T20:22:10.384Z,7.57
2018-06-22T20:28:05.274Z,7.49
2018-06-22T20:34:00.378Z,6.58
2018-06-22T20:39:55.279Z,7.56
2018-06-22T20:45:50.272Z,7.12
2018-06-22T20:51:45.420Z,5.02
2018-06-22T20:57:40.309Z,5.64
2018-06-22T21:03:35.343Z,3.87
2018-06-22T21:09:30.385Z,4.47
2018-06-22T21:15:25.323Z,2.06
2018-06-22T21:21:20.316Z,2.12
2018-06-22T21:27:15.335Z,1.81
2018-06-22T21:33:10.319Z,2.38
2018-06-22T21:39:05.389Z,1.71
2018-06-22T21:45:00.298Z,1.68
2018-06-22T21:50:55.357Z,1.5
2018-06-22T21:56:50.325Z,2.23
2018-06-22T22:02:45.348Z,1.74
2018-06-22T22:08:40.364Z,1.49
2018-06-22T22:14:35.363Z,1.36
2018-06-22T22:20:30.385Z,2.83
2018-06-22T22:26:25.350Z,1.18
2018-06-22T22:32:20.411Z,1.03
2018-06-22T22:38:15.402Z,1.5
2018-06-22T22:44:10.440Z,1.72
2018-06-22T22:50:05.437Z,1.13
2018-06-22T22:56:00.388Z,1.2
2018-06-22T23:01:55.399Z,0.97
2018-06-22T23:07:50.366Z,0.84
2018-06-22T23:13:45.430Z,1.05
2018-06-22T23:19:40.462Z,1.13
2018-06-22T23:25:35.439Z,0.98
2018-06-22T23:31:30.412Z,0.89
2018-06-22T23:37:25.538Z,0.91
2018-06-22T23:43:20.429Z,1
2018-06-22T23:49:15.448Z,0.98
2018-06-22T23:55:10.504Z,1.12
